sensor_id;sensor_type;location;lat;lon;timestamp;pressure;altitude;pressure_sealevel;temperature;humidity
40708;BME280;26392;42.696;23.350;2023-03-15T00:00:05;94323.13;;;6.32;52.68
40708;BME280;26392;42.696;23.350;2023-03-15T00:02:34;94324.38;;;6.24;53.06
40708;BME280;26392;42.696;23.350;2023-03-15T00:04:59;94322.44;;;6.20;53.03
40708;BME280;26392;42.696;23.350;2023-03-15T00:07:24;94315.22;;;6.25;51.89
40708;BME280;26392;42.696;23.350;2023-03-15T00:09:53;94310.41;;;6.33;51.91
40708;BME280;26392;42.696;23.350;2023-03-15T00:12:19;94307.69;;;6.27;52.09
40708;BME280;26392;42.696;23.350;2023-03-15T00:14:48;94304.69;;;6.29;52.75
40708;BME280;26392;42.696;23.350;2023-03-15T00:17:13;94309.03;;;6.30;52.61
40708;BME280;26392;42.696;23.350;2023-03-15T00:19:57;94315.22;;;6.25;52.26
40708;BME280;26392;42.696;23.350;2023-03-15T00:22:22;94319.25;;;6.23;52.10
40708;BME280;26392;42.696;23.350;2023-03-15T00:24:48;94308.72;;;6.26;51.92
40708;BME280;26392;42.696;23.350;2023-03-15T00:27:13;94312.69;;;6.19;51.71
40708;BME280;26392;42.696;23.350;2023-03-15T00:29:38;94311.38;;;5.99;51.63
40708;BME280;26392;42.696;23.350;2023-03-15T00:32:04;94316.56;;;5.84;52.32
40708;BME280;26392;42.696;23.350;2023-03-15T00:34:31;94304.25;;;5.93;51.84
40708;BME280;26392;42.696;23.350;2023-03-15T00:36:58;94304.84;;;5.95;51.79
40708;BME280;26392;42.696;23.350;2023-03-15T00:39:23;94300.06;;;6.02;51.78
40708;BME280;26392;42.696;23.350;2023-03-15T00:41:50;94293.88;;;6.07;51.78
40708;BME280;26392;42.696;23.350;2023-03-15T00:44:16;94292.50;;;6.04;52.09
40708;BME280;26392;42.696;23.350;2023-03-15T00:46:41;94296.16;;;6.15;52.14
40708;BME280;26392;42.696;23.350;2023-03-15T00:49:06;94302.44;;;6.21;52.13
40708;BME280;26392;42.696;23.350;2023-03-15T00:51:32;94287.47;;;6.13;51.88
40708;BME280;26392;42.696;23.350;2023-03-15T00:53:57;94295.41;;;6.20;52.18
40708;BME280;26392;42.696;23.350;2023-03-15T00:56:25;94288.75;;;6.27;51.72
40708;BME280;26392;42.696;23.350;2023-03-15T00:58:51;94270.72;;;6.38;51.63
40708;BME280;26392;42.696;23.350;2023-03-15T01:01:22;94285.69;;;6.46;51.44
40708;BME280;26392;42.696;23.350;2023-03-15T01:03:48;94274.56;;;6.42;51.93
40708;BME280;26392;42.696;23.350;2023-03-15T01:06:26;94281.66;;;6.48;51.14
40708;BME280;26392;42.696;23.350;2023-03-15T01:08:52;94270.22;;;6.41;51.26
40708;BME280;26392;42.696;23.350;2023-03-15T01:11:22;94266.69;;;6.41;50.80
40708;BME280;26392;42.696;23.350;2023-03-15T01:13:51;94264.25;;;6.39;50.65
40708;BME280;26392;42.696;23.350;2023-03-15T01:16:17;94259.97;;;6.21;51.70
40708;BME280;26392;42.696;23.350;2023-03-15T01:18:43;94260.59;;;6.28;51.09
40708;BME280;26392;42.696;23.350;2023-03-15T01:21:10;94255.19;;;6.28;52.04
40708;BME280;26392;42.696;23.350;2023-03-15T01:23:35;94264.44;;;6.33;51.44
40708;BME280;26392;42.696;23.350;2023-03-15T01:26:02;94251.97;;;6.32;51.28
40708;BME280;26392;42.696;23.350;2023-03-15T01:28:28;94254.38;;;6.28;51.35
40708;BME280;26392;42.696;23.350;2023-03-15T01:30:54;94247.59;;;6.25;51.81
40708;BME280;26392;42.696;23.350;2023-03-15T01:33:20;94247.09;;;6.28;52.37
40708;BME280;26392;42.696;23.350;2023-03-15T01:35:46;94241.38;;;6.25;52.22
40708;BME280;26392;42.696;23.350;2023-03-15T01:38:12;94241.63;;;6.01;52.51
40708;BME280;26392;42.696;23.350;2023-03-15T01:40:42;94247.22;;;5.73;53.28
40708;BME280;26392;42.696;23.350;2023-03-15T01:46:02;94241.31;;;5.37;55.12
40708;BME280;26392;42.696;23.350;2023-03-15T01:50:54;94232.94;;;5.55;54.70
40708;BME280;26392;42.696;23.350;2023-03-15T01:53:21;94217.63;;;5.61;54.15
40708;BME280;26392;42.696;23.350;2023-03-15T01:55:48;94228.84;;;5.53;54.93
40708;BME280;26392;42.696;23.350;2023-03-15T01:58:13;94220.03;;;5.63;54.94
40708;BME280;26392;42.696;23.350;2023-03-15T02:00:40;94212.00;;;5.68;54.18
40708;BME280;26392;42.696;23.350;2023-03-15T02:03:09;94218.81;;;5.70;54.99
40708;BME280;26392;42.696;23.350;2023-03-15T02:05:46;94202.22;;;5.61;54.53
40708;BME280;26392;42.696;23.350;2023-03-15T02:08:15;94212.50;;;5.65;54.82
40708;BME280;26392;42.696;23.350;2023-03-15T02:10:44;94209.56;;;5.66;54.52
40708;BME280;26392;42.696;23.350;2023-03-15T02:13:13;94189.78;;;5.60;54.23
40708;BME280;26392;42.696;23.350;2023-03-15T02:15:40;94195.50;;;5.64;53.86
40708;BME280;26392;42.696;23.350;2023-03-15T02:18:11;94197.56;;;5.57;54.00
40708;BME280;26392;42.696;23.350;2023-03-15T02:20:43;94192.34;;;5.50;53.86
40708;BME280;26392;42.696;23.350;2023-03-15T02:23:16;94190.66;;;5.44;54.66
40708;BME280;26392;42.696;23.350;2023-03-15T02:28:23;94181.63;;;5.16;55.56
40708;BME280;26392;42.696;23.350;2023-03-15T02:30:49;94189.81;;;5.22;55.99
40708;BME280;26392;42.696;23.350;2023-03-15T02:38:41;94171.78;;;5.27;55.26
40708;BME280;26392;42.696;23.350;2023-03-15T02:41:07;94191.00;;;5.31;55.04
40708;BME280;26392;42.696;23.350;2023-03-15T02:43:34;94183.16;;;5.29;55.32
40708;BME280;26392;42.696;23.350;2023-03-15T02:46:01;94181.34;;;5.35;54.48
40708;BME280;26392;42.696;23.350;2023-03-15T02:48:28;94186.88;;;5.45;54.52
40708;BME280;26392;42.696;23.350;2023-03-15T02:50:56;94190.50;;;5.34;55.27
40708;BME280;26392;42.696;23.350;2023-03-15T02:53:21;94178.44;;;5.20;55.08
40708;BME280;26392;42.696;23.350;2023-03-15T02:55:47;94173.19;;;5.30;55.16
40708;BME280;26392;42.696;23.350;2023-03-15T02:58:12;94165.81;;;5.25;54.75
40708;BME280;26392;42.696;23.350;2023-03-15T03:00:37;94166.91;;;5.24;54.49
40708;BME280;26392;42.696;23.350;2023-03-15T03:03:03;94162.88;;;5.27;54.85
40708;BME280;26392;42.696;23.350;2023-03-15T03:05:29;94168.78;;;5.24;55.00
40708;BME280;26392;42.696;23.350;2023-03-15T03:07:54;94147.53;;;5.10;54.93
40708;BME280;26392;42.696;23.350;2023-03-15T03:10:20;94160.22;;;5.10;55.16
40708;BME280;26392;42.696;23.350;2023-03-15T03:12:45;94161.78;;;5.06;55.86
40708;BME280;26392;42.696;23.350;2023-03-15T03:15:11;94156.38;;;5.06;56.17
40708;BME280;26392;42.696;23.350;2023-03-15T03:17:37;94151.88;;;5.11;55.49
40708;BME280;26392;42.696;23.350;2023-03-15T03:20:11;94149.84;;;5.02;55.48
40708;BME280;26392;42.696;23.350;2023-03-15T03:22:38;94141.50;;;5.03;55.75
40708;BME280;26392;42.696;23.350;2023-03-15T03:25:05;94135.47;;;4.96;56.00
40708;BME280;26392;42.696;23.350;2023-03-15T03:27:31;94139.47;;;4.93;56.04
40708;BME280;26392;42.696;23.350;2023-03-15T03:30:01;94139.06;;;5.02;56.85
40708;BME280;26392;42.696;23.350;2023-03-15T03:32:26;94130.38;;;5.00;56.46
40708;BME280;26392;42.696;23.350;2023-03-15T03:34:52;94137.66;;;4.99;56.91
40708;BME280;26392;42.696;23.350;2023-03-15T03:37:18;94123.91;;;5.01;57.02
40708;BME280;26392;42.696;23.350;2023-03-15T03:39:44;94127.13;;;5.20;56.82
40708;BME280;26392;42.696;23.350;2023-03-15T03:42:09;94120.72;;;5.26;57.35
40708;BME280;26392;42.696;23.350;2023-03-15T03:44:35;94117.16;;;5.20;57.14
40708;BME280;26392;42.696;23.350;2023-03-15T03:47:00;94126.00;;;5.37;55.85
40708;BME280;26392;42.696;23.350;2023-03-15T03:49:26;94124.16;;;5.43;55.42
40708;BME280;26392;42.696;23.350;2023-03-15T03:51:51;94120.41;;;5.44;55.38
40708;BME280;26392;42.696;23.350;2023-03-15T03:54:16;94115.63;;;5.51;54.83
40708;BME280;26392;42.696;23.350;2023-03-15T03:56:45;94113.50;;;5.53;54.95
40708;BME280;26392;42.696;23.350;2023-03-15T03:59:10;94119.19;;;5.57;55.08
40708;BME280;26392;42.696;23.350;2023-03-15T04:01:35;94111.09;;;5.57;55.99
40708;BME280;26392;42.696;23.350;2023-03-15T04:04:01;94111.72;;;5.64;55.27
40708;BME280;26392;42.696;23.350;2023-03-15T04:06:26;94116.31;;;5.64;55.50
40708;BME280;26392;42.696;23.350;2023-03-15T04:08:51;94103.09;;;5.67;55.51
40708;BME280;26392;42.696;23.350;2023-03-15T04:11:17;94105.81;;;5.67;54.55
40708;BME280;26392;42.696;23.350;2023-03-15T04:13:43;94109.91;;;5.70;55.00
40708;BME280;26392;42.696;23.350;2023-03-15T04:16:11;94102.53;;;5.65;55.79
40708;BME280;26392;42.696;23.350;2023-03-15T04:18:38;94083.09;;;5.63;55.48
40708;BME280;26392;42.696;23.350;2023-03-15T04:21:05;94099.53;;;5.61;55.49
40708;BME280;26392;42.696;23.350;2023-03-15T04:23:35;94095.16;;;5.55;56.54
40708;BME280;26392;42.696;23.350;2023-03-15T04:26:01;94093.03;;;5.57;57.66
40708;BME280;26392;42.696;23.350;2023-03-15T04:28:27;94107.00;;;5.54;57.25
40708;BME280;26392;42.696;23.350;2023-03-15T04:30:54;94104.94;;;5.61;56.91
40708;BME280;26392;42.696;23.350;2023-03-15T04:33:23;94099.47;;;5.56;57.27
40708;BME280;26392;42.696;23.350;2023-03-15T04:35:49;94088.97;;;5.60;57.37
40708;BME280;26392;42.696;23.350;2023-03-15T04:38:16;94078.78;;;5.67;57.67
40708;BME280;26392;42.696;23.350;2023-03-15T04:40:42;94090.31;;;5.57;57.71
40708;BME280;26392;42.696;23.350;2023-03-15T04:43:07;94090.50;;;5.29;58.13
40708;BME280;26392;42.696;23.350;2023-03-15T04:45:33;94094.72;;;5.42;58.68
40708;BME280;26392;42.696;23.350;2023-03-15T04:47:59;94099.56;;;5.39;58.78
40708;BME280;26392;42.696;23.350;2023-03-15T04:50:25;94100.78;;;5.54;58.50
40708;BME280;26392;42.696;23.350;2023-03-15T04:52:51;94101.66;;;5.59;58.50
40708;BME280;26392;42.696;23.350;2023-03-15T04:55:17;94096.78;;;5.56;57.70
40708;BME280;26392;42.696;23.350;2023-03-15T04:57:42;94100.56;;;5.55;58.38
40708;BME280;26392;42.696;23.350;2023-03-15T05:00:09;94097.28;;;5.53;58.07
40708;BME280;26392;42.696;23.350;2023-03-15T05:02:36;94089.31;;;5.42;58.03
40708;BME280;26392;42.696;23.350;2023-03-15T05:05:10;94080.56;;;5.29;58.81
40708;BME280;26392;42.696;23.350;2023-03-15T05:07:37;94094.81;;;5.25;59.61
40708;BME280;26392;42.696;23.350;2023-03-15T05:10:03;94092.97;;;5.30;59.51
40708;BME280;26392;42.696;23.350;2023-03-15T05:12:29;94095.47;;;5.37;60.07
40708;BME280;26392;42.696;23.350;2023-03-15T05:14:54;94103.75;;;5.52;60.95
40708;BME280;26392;42.696;23.350;2023-03-15T05:17:20;94105.75;;;5.62;60.00
40708;BME280;26392;42.696;23.350;2023-03-15T05:19:47;94085.78;;;5.63;59.57
40708;BME280;26392;42.696;23.350;2023-03-15T05:22:13;94097.09;;;5.87;58.57
40708;BME280;26392;42.696;23.350;2023-03-15T05:24:38;94085.84;;;5.95;59.14
40708;BME280;26392;42.696;23.350;2023-03-15T05:27:04;94091.31;;;6.00;57.68
40708;BME280;26392;42.696;23.350;2023-03-15T05:29:29;94082.28;;;6.17;57.15
40708;BME280;26392;42.696;23.350;2023-03-15T05:31:54;94083.94;;;6.23;56.15
40708;BME280;26392;42.696;23.350;2023-03-15T05:34:20;94072.59;;;6.26;55.43
40708;BME280;26392;42.696;23.350;2023-03-15T05:36:51;94080.81;;;6.36;54.74
40708;BME280;26392;42.696;23.350;2023-03-15T05:39:17;94078.19;;;6.52;54.81
40708;BME280;26392;42.696;23.350;2023-03-15T05:41:43;94075.84;;;6.65;53.37
40708;BME280;26392;42.696;23.350;2023-03-15T05:44:08;94075.34;;;6.68;52.25
40708;BME280;26392;42.696;23.350;2023-03-15T05:46:34;94083.75;;;6.72;52.41
40708;BME280;26392;42.696;23.350;2023-03-15T05:48:59;94072.66;;;6.73;51.39
40708;BME280;26392;42.696;23.350;2023-03-15T05:51:24;94074.00;;;6.71;51.26
40708;BME280;26392;42.696;23.350;2023-03-15T05:53:50;94068.81;;;6.64;51.13
40708;BME280;26392;42.696;23.350;2023-03-15T05:56:15;94072.22;;;6.49;51.15
40708;BME280;26392;42.696;23.350;2023-03-15T05:58:41;94070.03;;;6.41;51.54
40708;BME280;26392;42.696;23.350;2023-03-15T06:01:06;94068.09;;;6.37;51.92
40708;BME280;26392;42.696;23.350;2023-03-15T06:03:32;94082.66;;;6.36;52.54
40708;BME280;26392;42.696;23.350;2023-03-15T06:05:57;94078.09;;;6.36;52.58
40708;BME280;26392;42.696;23.350;2023-03-15T06:08:23;94076.72;;;6.34;53.00
40708;BME280;26392;42.696;23.350;2023-03-15T06:10:49;94078.94;;;6.42;52.91
40708;BME280;26392;42.696;23.350;2023-03-15T06:13:15;94076.06;;;6.21;53.21
40708;BME280;26392;42.696;23.350;2023-03-15T06:15:40;94066.97;;;6.33;53.83
40708;BME280;26392;42.696;23.350;2023-03-15T06:18:06;94068.59;;;6.34;55.39
40708;BME280;26392;42.696;23.350;2023-03-15T06:20:32;94077.72;;;6.60;54.57
40708;BME280;26392;42.696;23.350;2023-03-15T06:22:58;94074.38;;;6.90;53.85
40708;BME280;26392;42.696;23.350;2023-03-15T06:25:23;94090.91;;;6.93;52.50
40708;BME280;26392;42.696;23.350;2023-03-15T06:27:49;94089.25;;;6.87;53.35
40708;BME280;26392;42.696;23.350;2023-03-15T06:30:14;94080.13;;;6.99;53.16
40708;BME280;26392;42.696;23.350;2023-03-15T06:32:40;94077.53;;;7.24;53.53
40708;BME280;26392;42.696;23.350;2023-03-15T06:35:06;94074.88;;;7.45;52.48
40708;BME280;26392;42.696;23.350;2023-03-15T06:37:31;94070.63;;;7.69;51.54
40708;BME280;26392;42.696;23.350;2023-03-15T06:39:57;94063.63;;;7.83;51.34
40708;BME280;26392;42.696;23.350;2023-03-15T06:42:22;94080.94;;;7.72;51.82
40708;BME280;26392;42.696;23.350;2023-03-15T06:44:48;94076.91;;;7.95;51.82
40708;BME280;26392;42.696;23.350;2023-03-15T06:47:13;94072.63;;;8.10;50.92
40708;BME280;26392;42.696;23.350;2023-03-15T06:49:39;94063.63;;;7.83;50.76
40708;BME280;26392;42.696;23.350;2023-03-15T06:52:05;94057.66;;;7.92;51.91
40708;BME280;26392;42.696;23.350;2023-03-15T06:54:31;94068.81;;;8.36;51.27
40708;BME280;26392;42.696;23.350;2023-03-15T06:56:56;94064.78;;;8.49;50.30
40708;BME280;26392;42.696;23.350;2023-03-15T06:59:22;94077.25;;;8.65;49.74
40708;BME280;26392;42.696;23.350;2023-03-15T07:01:48;94066.41;;;8.55;50.69
40708;BME280;26392;42.696;23.350;2023-03-15T07:04:13;94055.56;;;8.50;50.21
40708;BME280;26392;42.696;23.350;2023-03-15T07:06:38;94052.56;;;8.46;50.69
40708;BME280;26392;42.696;23.350;2023-03-15T07:09:04;94059.88;;;8.36;51.45
40708;BME280;26392;42.696;23.350;2023-03-15T07:11:30;94044.13;;;8.22;51.68
40708;BME280;26392;42.696;23.350;2023-03-15T07:13:56;94040.88;;;8.30;51.63
40708;BME280;26392;42.696;23.350;2023-03-15T07:16:23;94064.25;;;8.42;50.97
40708;BME280;26392;42.696;23.350;2023-03-15T07:18:48;94060.72;;;8.51;49.92
40708;BME280;26392;42.696;23.350;2023-03-15T07:21:14;94055.25;;;8.36;50.62
40708;BME280;26392;42.696;23.350;2023-03-15T07:23:40;94049.06;;;8.46;50.86
40708;BME280;26392;42.696;23.350;2023-03-15T07:26:05;94059.63;;;8.42;50.65
40708;BME280;26392;42.696;23.350;2023-03-15T07:28:30;94058.78;;;8.62;50.59
40708;BME280;26392;42.696;23.350;2023-03-15T07:31:04;94058.50;;;8.84;50.07
40708;BME280;26392;42.696;23.350;2023-03-15T07:33:31;94056.00;;;9.08;49.47
40708;BME280;26392;42.696;23.350;2023-03-15T07:35:59;94051.53;;;9.38;49.27
40708;BME280;26392;42.696;23.350;2023-03-15T07:38:26;94065.41;;;9.36;48.48
40708;BME280;26392;42.696;23.350;2023-03-15T07:40:55;94053.63;;;9.56;48.29
40708;BME280;26392;42.696;23.350;2023-03-15T07:43:21;94051.13;;;9.65;47.84
40708;BME280;26392;42.696;23.350;2023-03-15T07:45:47;94057.47;;;10.00;47.75
40708;BME280;26392;42.696;23.350;2023-03-15T07:48:12;94052.66;;;10.31;46.89
40708;BME280;26392;42.696;23.350;2023-03-15T07:50:38;94056.53;;;10.59;47.09
40708;BME280;26392;42.696;23.350;2023-03-15T07:53:04;94043.31;;;10.71;45.69
40708;BME280;26392;42.696;23.350;2023-03-15T07:55:31;94047.16;;;10.70;45.49
40708;BME280;26392;42.696;23.350;2023-03-15T07:57:56;94044.09;;;10.77;45.86
40708;BME280;26392;42.696;23.350;2023-03-15T08:00:22;94046.44;;;10.60;46.05
40708;BME280;26392;42.696;23.350;2023-03-15T08:02:48;94043.44;;;10.22;46.76
40708;BME280;26392;42.696;23.350;2023-03-15T08:05:14;94042.22;;;10.43;46.57
40708;BME280;26392;42.696;23.350;2023-03-15T08:07:39;94029.19;;;10.40;46.57
40708;BME280;26392;42.696;23.350;2023-03-15T08:10:05;94023.81;;;10.64;46.51
40708;BME280;26392;42.696;23.350;2023-03-15T08:12:31;94026.09;;;10.81;46.23
40708;BME280;26392;42.696;23.350;2023-03-15T08:14:57;94017.38;;;11.03;45.95
40708;BME280;26392;42.696;23.350;2023-03-15T08:17:23;94012.50;;;11.00;45.17
40708;BME280;26392;42.696;23.350;2023-03-15T08:19:48;94000.09;;;10.89;45.53
40708;BME280;26392;42.696;23.350;2023-03-15T08:22:13;93996.22;;;10.71;45.89
40708;BME280;26392;42.696;23.350;2023-03-15T08:24:39;94001.78;;;11.09;45.21
40708;BME280;26392;42.696;23.350;2023-03-15T08:27:04;93993.66;;;11.52;44.43
40708;BME280;26392;42.696;23.350;2023-03-15T08:29:30;94008.81;;;12.01;44.20
40708;BME280;26392;42.696;23.350;2023-03-15T08:31:56;94012.31;;;12.39;42.64
40708;BME280;26392;42.696;23.350;2023-03-15T08:34:22;94004.38;;;12.57;42.59
40708;BME280;26392;42.696;23.350;2023-03-15T08:36:48;94001.06;;;12.73;41.58
40708;BME280;26392;42.696;23.350;2023-03-15T08:39:14;94008.44;;;12.59;41.44
40708;BME280;26392;42.696;23.350;2023-03-15T08:41:40;94018.84;;;12.57;41.38
40708;BME280;26392;42.696;23.350;2023-03-15T08:44:06;94006.34;;;12.37;41.95
40708;BME280;26392;42.696;23.350;2023-03-15T08:46:31;94014.25;;;12.39;41.74
40708;BME280;26392;42.696;23.350;2023-03-15T08:48:57;94000.75;;;12.09;41.40
40708;BME280;26392;42.696;23.350;2023-03-15T08:51:23;93991.41;;;11.97;41.81
40708;BME280;26392;42.696;23.350;2023-03-15T08:53:49;94002.47;;;12.24;41.59
40708;BME280;26392;42.696;23.350;2023-03-15T08:56:16;94013.81;;;12.13;41.63
40708;BME280;26392;42.696;23.350;2023-03-15T08:58:41;94006.97;;;11.96;42.19
40708;BME280;26392;42.696;23.350;2023-03-15T09:01:06;94001.28;;;11.93;42.44
40708;BME280;26392;42.696;23.350;2023-03-15T09:03:32;94003.03;;;11.83;42.96
40708;BME280;26392;42.696;23.350;2023-03-15T09:05:58;94002.94;;;11.70;42.90
40708;BME280;26392;42.696;23.350;2023-03-15T09:08:25;94002.31;;;11.97;42.67
40708;BME280;26392;42.696;23.350;2023-03-15T09:10:56;94005.41;;;12.09;42.15
40708;BME280;26392;42.696;23.350;2023-03-15T09:13:22;94000.16;;;11.75;42.91
40708;BME280;26392;42.696;23.350;2023-03-15T09:15:49;94007.91;;;12.24;42.14
40708;BME280;26392;42.696;23.350;2023-03-15T09:18:15;93998.63;;;12.58;41.62
40708;BME280;26392;42.696;23.350;2023-03-15T09:20:41;94000.44;;;12.63;41.70
40708;BME280;26392;42.696;23.350;2023-03-15T09:23:06;94008.25;;;12.69;41.62
40708;BME280;26392;42.696;23.350;2023-03-15T09:25:32;94009.38;;;12.82;41.48
40708;BME280;26392;42.696;23.350;2023-03-15T09:27:57;94005.75;;;12.87;41.31
40708;BME280;26392;42.696;23.350;2023-03-15T09:30:23;94010.03;;;12.93;41.47
40708;BME280;26392;42.696;23.350;2023-03-15T09:32:49;94005.88;;;12.95;41.03
40708;BME280;26392;42.696;23.350;2023-03-15T09:35:17;94000.84;;;13.16;40.90
40708;BME280;26392;42.696;23.350;2023-03-15T09:37:43;93997.94;;;13.40;40.24
40708;BME280;26392;42.696;23.350;2023-03-15T09:40:17;93997.31;;;13.30;40.31
40708;BME280;26392;42.696;23.350;2023-03-15T09:53:53;93977.91;;;14.18;39.09
40708;BME280;26392;42.696;23.350;2023-03-15T09:56:24;93970.75;;;13.94;39.34
40708;BME280;26392;42.696;23.350;2023-03-15T09:58:56;93965.06;;;14.04;39.03
40708;BME280;26392;42.696;23.350;2023-03-15T10:01:36;93976.16;;;14.22;38.82
40708;BME280;26392;42.696;23.350;2023-03-15T10:06:55;93968.22;;;14.34;39.07
40708;BME280;26392;42.696;23.350;2023-03-15T10:09:23;93978.53;;;14.37;38.51
40708;BME280;26392;42.696;23.350;2023-03-15T10:15:09;93972.56;;;14.58;38.09
40708;BME280;26392;42.696;23.350;2023-03-15T10:20:40;93975.06;;;14.68;37.81
40708;BME280;26392;42.696;23.350;2023-03-15T10:23:34;93972.28;;;14.90;37.61
40708;BME280;26392;42.696;23.350;2023-03-15T10:26:05;93968.06;;;15.15;37.17
40708;BME280;26392;42.696;23.350;2023-03-15T10:28:33;93969.53;;;15.21;37.06
40708;BME280;26392;42.696;23.350;2023-03-15T10:31:10;93970.59;;;15.12;36.98
40708;BME280;26392;42.696;23.350;2023-03-15T10:33:37;93964.16;;;14.76;37.28
40708;BME280;26392;42.696;23.350;2023-03-15T10:38:41;93958.78;;;14.04;38.73
40708;BME280;26392;42.696;23.350;2023-03-15T10:41:07;93968.13;;;14.25;38.75
40708;BME280;26392;42.696;23.350;2023-03-15T10:43:34;93977.28;;;14.21;38.41
40708;BME280;26392;42.696;23.350;2023-03-15T10:46:05;93967.56;;;13.92;38.65
40708;BME280;26392;42.696;23.350;2023-03-15T10:48:39;93967.78;;;13.82;38.98
40708;BME280;26392;42.696;23.350;2023-03-15T10:51:28;93958.69;;;13.73;38.98
40708;BME280;26392;42.696;23.350;2023-03-15T10:54:19;93952.47;;;13.81;39.23
40708;BME280;26392;42.696;23.350;2023-03-15T10:57:02;93953.13;;;14.00;38.80
40708;BME280;26392;42.696;23.350;2023-03-15T10:59:30;93964.84;;;14.15;39.25
40708;BME280;26392;42.696;23.350;2023-03-15T11:04:41;93961.75;;;14.52;38.23
40708;BME280;26392;42.696;23.350;2023-03-15T11:07:07;93953.88;;;14.37;38.57
40708;BME280;26392;42.696;23.350;2023-03-15T11:09:40;93957.25;;;14.12;38.57
40708;BME280;26392;42.696;23.350;2023-03-15T11:12:15;93953.88;;;14.37;38.32
40708;BME280;26392;42.696;23.350;2023-03-15T11:14:44;93942.41;;;14.35;38.26
40708;BME280;26392;42.696;23.350;2023-03-15T11:17:28;93953.06;;;14.37;38.84
40708;BME280;26392;42.696;23.350;2023-03-15T11:20:06;93932.25;;;14.36;38.43
40708;BME280;26392;42.696;23.350;2023-03-15T11:22:41;93941.97;;;14.42;38.28
40708;BME280;26392;42.696;23.350;2023-03-15T11:25:14;93937.06;;;14.30;38.42
40708;BME280;26392;42.696;23.350;2023-03-15T11:27:40;93944.91;;;14.23;38.47
40708;BME280;26392;42.696;23.350;2023-03-15T11:30:15;93943.34;;;14.30;38.42
40708;BME280;26392;42.696;23.350;2023-03-15T11:32:42;93951.66;;;14.48;38.22
40708;BME280;26392;42.696;23.350;2023-03-15T11:35:13;93944.41;;;14.66;38.06
40708;BME280;26392;42.696;23.350;2023-03-15T11:40:20;93929.53;;;14.89;37.75
40708;BME280;26392;42.696;23.350;2023-03-15T11:42:55;93931.97;;;14.91;37.55
40708;BME280;26392;42.696;23.350;2023-03-15T11:45:44;93930.44;;;14.76;37.67
40708;BME280;26392;42.696;23.350;2023-03-15T11:51:00;93934.84;;;14.86;37.69
40708;BME280;26392;42.696;23.350;2023-03-15T11:53:30;93931.06;;;15.04;37.69
40708;BME280;26392;42.696;23.350;2023-03-15T11:56:24;93926.94;;;15.24;37.35
40708;BME280;26392;42.696;23.350;2023-03-15T11:59:08;93925.38;;;15.49;36.89
40708;BME280;26392;42.696;23.350;2023-03-15T12:01:36;93915.72;;;15.52;36.57
40708;BME280;26392;42.696;23.350;2023-03-15T12:06:48;93926.75;;;15.95;36.02
40708;BME280;26392;42.696;23.350;2023-03-15T12:11:59;93912.78;;;14.60;37.67
40708;BME280;26392;42.696;23.350;2023-03-15T12:14:30;93906.38;;;14.73;37.67
40708;BME280;26392;42.696;23.350;2023-03-15T12:20:26;93905.47;;;14.86;37.59
40708;BME280;26392;42.696;23.350;2023-03-15T12:23:31;93892.56;;;14.87;38.57
40708;BME280;26392;42.696;23.350;2023-03-15T12:31:01;93902.13;;;14.58;41.03
40708;BME280;26392;42.696;23.350;2023-03-15T12:33:29;93900.66;;;14.29;42.35
40708;BME280;26392;42.696;23.350;2023-03-15T12:36:08;93889.47;;;14.17;42.88
40708;BME280;26392;42.696;23.350;2023-03-15T12:38:37;93890.63;;;14.02;43.34
40708;BME280;26392;42.696;23.350;2023-03-15T12:41:08;93898.09;;;13.88;43.77
40708;BME280;26392;42.696;23.350;2023-03-15T12:43:42;93902.91;;;13.69;43.91
40708;BME280;26392;42.696;23.350;2023-03-15T12:51:44;93874.03;;;13.40;45.09
40708;BME280;26392;42.696;23.350;2023-03-15T12:54:17;93889.63;;;13.39;45.47
40708;BME280;26392;42.696;23.350;2023-03-15T12:56:49;93888.53;;;13.27;45.81
40708;BME280;26392;42.696;23.350;2023-03-15T13:02:36;93895.53;;;13.05;47.26
40708;BME280;26392;42.696;23.350;2023-03-15T13:05:17;93893.59;;;12.92;48.10
40708;BME280;26392;42.696;23.350;2023-03-15T13:08:04;93893.41;;;12.88;48.21
40708;BME280;26392;42.696;23.350;2023-03-15T13:10:37;93892.72;;;12.83;47.85
40708;BME280;26392;42.696;23.350;2023-03-15T13:21:33;93878.16;;;13.24;46.03
40708;BME280;26392;42.696;23.350;2023-03-15T13:24:00;93883.81;;;13.55;45.21
40708;BME280;26392;42.696;23.350;2023-03-15T13:29:15;93892.63;;;13.88;43.78
40708;BME280;26392;42.696;23.350;2023-03-15T13:31:43;93895.09;;;13.76;43.68
40708;BME280;26392;42.696;23.350;2023-03-15T13:34:15;93897.47;;;13.91;43.52
40708;BME280;26392;42.696;23.350;2023-03-15T13:37:01;93896.78;;;13.85;43.45
40708;BME280;26392;42.696;23.350;2023-03-15T13:39:31;93903.63;;;13.74;43.38
40708;BME280;26392;42.696;23.350;2023-03-15T13:42:00;93904.13;;;13.76;43.45
40708;BME280;26392;42.696;23.350;2023-03-15T13:44:26;93900.53;;;13.90;43.01
40708;BME280;26392;42.696;23.350;2023-03-15T13:46:54;93887.41;;;14.00;42.76
40708;BME280;26392;42.696;23.350;2023-03-15T13:49:20;93888.38;;;13.82;42.95
40708;BME280;26392;42.696;23.350;2023-03-15T13:51:47;93893.88;;;14.04;42.59
40708;BME280;26392;42.696;23.350;2023-03-15T13:54:29;93894.59;;;13.37;43.64
40708;BME280;26392;42.696;23.350;2023-03-15T13:57:13;93897.03;;;13.11;44.30
40708;BME280;26392;42.696;23.350;2023-03-15T14:02:21;93900.25;;;13.77;43.62
40708;BME280;26392;42.696;23.350;2023-03-15T14:04:57;93894.16;;;14.03;42.45
40708;BME280;26392;42.696;23.350;2023-03-15T14:12:32;93884.28;;;14.16;42.73
40708;BME280;26392;42.696;23.350;2023-03-15T14:14:58;93890.63;;;14.02;43.24
40708;BME280;26392;42.696;23.350;2023-03-15T14:17:28;93889.75;;;13.93;43.25
40708;BME280;26392;42.696;23.350;2023-03-15T14:20:02;93888.50;;;13.77;44.21
40708;BME280;26392;42.696;23.350;2023-03-15T14:22:31;93894.81;;;13.63;45.40
40708;BME280;26392;42.696;23.350;2023-03-15T14:24:57;93890.84;;;13.47;44.53